createdAt,value
2022-08-16T00:01:17.429Z,12.65
2022-08-16T00:03:45.117Z,20.02
2022-08-16T00:06:12.329Z,16.88
2022-08-16T00:08:42.148Z,11.73
2022-08-16T00:11:15.290Z,13.65
2022-08-16T00:13:54.247Z,10.48
2022-08-16T00:17:00.824Z,9.80
2022-08-16T00:19:17.092Z,13.55
2022-08-16T00:21:46.428Z,12.55
2022-08-16T00:24:32.341Z,13.00
2022-08-16T00:27:00.485Z,14.80
2022-08-16T00:29:29.651Z,12.50
2022-08-16T00:32:01.335Z,18.38
2022-08-16T00:34:52.311Z,10.85
2022-08-16T00:37:24.308Z,10.00
2022-08-16T00:39:58.647Z,14.80
2022-08-16T00:42:31.714Z,14.43
2022-08-16T00:45:13.152Z,13.13
2022-08-16T00:47:49.502Z,13.25
2022-08-16T00:50:21.957Z,13.45
2022-08-16T00:53:05.398Z,13.07
2022-08-16T00:55:37.542Z,12.20
2022-08-16T00:58:13.251Z,12.52
2022-08-16T01:00:54.182Z,13.38
2022-08-16T01:03:31.714Z,15.10
2022-08-16T01:06:40.125Z,11.95
2022-08-16T01:08:53.439Z,11.07
2022-08-16T01:11:23.122Z,10.77
2022-08-16T01:13:55.333Z,10.55
2022-08-16T01:16:26.040Z,10.75
2022-08-16T01:19:01.118Z,11.43
2022-08-16T01:21:36.021Z,9.80
2022-08-16T01:24:51.630Z,13.10
2022-08-16T01:27:24.094Z,13.23
2022-08-16T01:30:26.303Z,17.73
2022-08-16T01:33:02.971Z,15.23
2022-08-16T01:36:11.812Z,14.23
2022-08-16T01:38:53.244Z,12.63
2022-08-16T01:41:29.746Z,14.00
2022-08-16T01:44:00.998Z,12.63
2022-08-16T01:46:39.907Z,11.13
2022-08-16T01:49:16.294Z,11.20
2022-08-16T01:51:47.924Z,9.88
2022-08-16T01:54:15.454Z,10.45
2022-08-16T01:56:42.924Z,14.45
2022-08-16T01:59:15.859Z,14.52
2022-08-16T02:01:52.662Z,15.43
2022-08-16T02:04:48.363Z,16.13
2022-08-16T02:07:15.780Z,15.13
2022-08-16T02:09:44.140Z,16.88
2022-08-16T02:12:50.455Z,16.85
2022-08-16T02:15:15.336Z,14.13
2022-08-16T02:17:43.132Z,11.88
2022-08-16T02:20:11.426Z,12.75
2022-08-16T02:22:39.582Z,16.70
2022-08-16T02:25:11.025Z,12.65
2022-08-16T02:27:41.015Z,11.10
2022-08-16T02:30:36.923Z,11.73
2022-08-16T02:33:00.567Z,11.60
2022-08-16T02:35:27.857Z,11.40
2022-08-16T02:37:56.104Z,12.15
2022-08-16T02:40:24.830Z,11.07
2022-08-16T02:42:53.928Z,11.95
2022-08-16T02:45:24.803Z,17.00
2022-08-16T02:48:00.362Z,17.75
2022-08-16T02:50:54.152Z,20.53
2022-08-16T02:53:14.692Z,29.38
2022-08-16T02:55:45.558Z,27.38
2022-08-16T02:58:17.445Z,23.00
2022-08-16T03:00:45.489Z,21.13
2022-08-16T03:03:18.002Z,11.85
2022-08-16T03:05:49.986Z,12.10
2022-08-16T03:08:50.966Z,13.45
2022-08-16T03:11:17.712Z,13.30
2022-08-16T03:13:53.036Z,14.75
2022-08-16T03:16:38.296Z,20.58
2022-08-16T03:19:09.835Z,16.48
2022-08-16T03:21:38.805Z,15.93
2022-08-16T03:24:28.197Z,17.05
2022-08-16T03:26:58.063Z,18.75
2022-08-16T03:29:31.339Z,24.80
2022-08-16T03:31:59.646Z,22.23
2022-08-16T03:34:29.547Z,21.38
2022-08-16T03:36:56.889Z,18.73
2022-08-16T03:39:24.108Z,20.15
2022-08-16T03:41:59.780Z,21.00
2022-08-16T03:44:43.439Z,19.92
2022-08-16T03:47:12.049Z,19.85
2022-08-16T03:49:38.887Z,23.75
2022-08-16T03:52:06.369Z,23.80
2022-08-16T03:54:35.728Z,23.92
2022-08-16T03:57:03.207Z,19.88
2022-08-16T03:59:32.529Z,17.35
2022-08-16T04:02:01.305Z,18.38
2022-08-16T04:04:33.636Z,19.10
2022-08-16T04:07:02.913Z,17.02
2022-08-16T04:09:35.437Z,18.10
2022-08-16T04:12:10.821Z,19.80
2022-08-16T04:14:46.908Z,20.92
2022-08-16T04:17:16.277Z,21.13
2022-08-16T04:19:47.381Z,15.55
2022-08-16T04:22:19.564Z,15.77
2022-08-16T04:24:54.789Z,14.15
2022-08-16T04:27:22.121Z,12.63
2022-08-16T04:29:52.213Z,12.98
2022-08-16T04:32:19.968Z,13.20
2022-08-16T04:34:46.987Z,17.50
2022-08-16T04:37:14.634Z,15.77
2022-08-16T04:39:47.339Z,20.02
2022-08-16T04:42:26.383Z,19.73
2022-08-16T04:44:58.279Z,18.02
2022-08-16T04:47:31.438Z,21.55
2022-08-16T04:50:00.718Z,19.83
2022-08-16T04:52:34.190Z,17.50
2022-08-16T04:55:06.133Z,17.25
2022-08-16T04:57:33.120Z,20.67
2022-08-16T05:00:30.680Z,24.38
2022-08-16T05:02:55.692Z,21.83
2022-08-16T05:05:23.487Z,25.17
2022-08-16T05:07:59.427Z,17.98
2022-08-16T05:18:18.282Z,19.02
2022-08-16T05:20:54.282Z,19.48
2022-08-16T05:23:31.713Z,21.33
2022-08-16T05:25:59.013Z,21.35
2022-08-16T05:28:37.669Z,22.33
2022-08-16T05:41:54.385Z,20.17
2022-08-16T05:44:25.009Z,20.38
2022-08-16T05:54:24.738Z,22.70
2022-08-16T05:56:51.277Z,26.33
2022-08-16T05:59:18.004Z,23.85
2022-08-16T06:01:44.181Z,21.20
2022-08-16T06:04:34.462Z,22.48
2022-08-16T06:17:47.269Z,21.38
2022-08-16T06:20:34.645Z,25.88
2022-08-16T06:28:08.354Z,18.70
2022-08-16T06:30:35.465Z,21.77
2022-08-16T06:33:12.501Z,19.67
2022-08-16T06:35:41.431Z,19.80
2022-08-16T06:38:32.580Z,18.48
2022-08-16T06:40:54.336Z,21.08
2022-08-16T06:43:20.653Z,18.88
2022-08-16T06:53:40.180Z,17.98
2022-08-16T06:56:14.228Z,16.63
2022-08-16T06:58:50.286Z,17.30
2022-08-16T07:01:17.064Z,14.75
2022-08-16T07:03:55.256Z,13.07
2022-08-16T07:06:26.738Z,15.40
2022-08-16T07:08:53.874Z,14.80
2022-08-16T07:19:03.895Z,11.30
2022-08-16T07:21:45.647Z,9.65
2022-08-16T07:24:12.761Z,10.23
2022-08-16T07:26:57.568Z,8.98
2022-08-16T07:29:24.262Z,11.95
2022-08-16T07:31:50.254Z,8.23
2022-08-16T07:34:19.708Z,8.18
2022-08-16T07:44:57.332Z,7.55
2022-08-16T07:47:31.713Z,8.00
2022-08-16T07:49:59.138Z,7.80
2022-08-16T07:52:29.833Z,15.27
2022-08-16T07:54:56.872Z,8.70
2022-08-16T07:57:24.246Z,9.27
2022-08-16T07:59:50.822Z,9.10
2022-08-16T08:02:19.654Z,8.82
2022-08-16T08:09:51.176Z,9.30
2022-08-16T08:12:32.663Z,10.38
2022-08-16T08:15:09.634Z,8.98
2022-08-16T08:17:42.496Z,9.25
2022-08-16T08:20:23.873Z,9.68
2022-08-16T08:23:00.911Z,8.20
2022-08-16T08:25:52.076Z,9.07
2022-08-16T08:33:14.892Z,7.97
2022-08-16T08:35:42.562Z,7.13
2022-08-16T08:38:09.810Z,8.13
2022-08-16T08:40:36.529Z,8.63
2022-08-16T08:43:12.215Z,6.03
2022-08-16T08:45:48.135Z,6.65
2022-08-16T08:48:32.792Z,9.50
2022-08-16T08:51:02.849Z,6.65
2022-08-16T08:53:30.590Z,10.13
2022-08-16T08:55:59.041Z,7.78
2022-08-16T08:58:34.209Z,9.48
2022-08-16T09:01:02.994Z,7.63
2022-08-16T09:03:32.366Z,5.43
2022-08-16T09:06:04.441Z,5.28
2022-08-16T09:08:32.172Z,7.03
2022-08-16T09:11:03.123Z,6.85
2022-08-16T09:13:35.853Z,9.80
2022-08-16T09:16:03.375Z,17.67
2022-08-16T09:18:35.329Z,5.03
2022-08-16T09:21:07.055Z,5.72
2022-08-16T09:23:37.036Z,7.13
2022-08-16T09:26:44.557Z,8.77
2022-08-16T09:29:15.824Z,9.35
2022-08-16T09:31:43.869Z,10.82
2022-08-16T09:34:17.212Z,5.60
2022-08-16T09:36:46.037Z,6.93
2022-08-16T09:39:16.375Z,6.38
2022-08-16T09:41:53.714Z,5.85
2022-08-16T09:45:12.620Z,7.50
2022-08-16T09:47:10.467Z,8.25
2022-08-16T09:49:37.606Z,8.32
2022-08-16T09:52:09.845Z,7.90
2022-08-16T09:54:38.489Z,7.15
2022-08-16T09:57:12.110Z,6.68
2022-08-16T09:59:41.893Z,9.55
2022-08-16T10:02:26.455Z,7.82
2022-08-16T10:04:55.558Z,7.00
2022-08-16T10:07:23.950Z,7.75
2022-08-16T10:09:55.150Z,7.50
2022-08-16T10:12:55.471Z,7.13
2022-08-16T10:15:24.714Z,12.00
2022-08-16T10:18:01.012Z,7.53
2022-08-16T10:20:32.446Z,6.00
2022-08-16T10:23:06.784Z,6.05
2022-08-16T10:27:16.669Z,8.25
2022-08-16T10:28:27.753Z,11.88
2022-08-16T10:30:58.908Z,7.72
2022-08-16T10:33:29.746Z,9.50
2022-08-16T10:36:04.050Z,9.52
2022-08-16T10:38:33.209Z,8.18
2022-08-16T10:41:04.161Z,7.15
2022-08-16T10:43:31.402Z,6.93
2022-08-16T10:46:00.146Z,5.75
2022-08-16T10:48:29.188Z,11.32
2022-08-16T10:50:58.621Z,10.23
2022-08-16T10:53:33.041Z,8.38
2022-08-16T11:03:42.813Z,7.28
2022-08-16T11:06:12.103Z,7.00
2022-08-16T11:08:44.980Z,7.53
2022-08-16T11:11:19.125Z,6.85
2022-08-16T11:14:10.797Z,11.55
2022-08-16T11:19:19.724Z,8.73
2022-08-16T11:29:32.261Z,6.57
2022-08-16T11:31:58.906Z,9.18
2022-08-16T11:34:24.825Z,5.50
2022-08-16T11:36:59.273Z,7.35
2022-08-16T11:39:28.880Z,10.02
2022-08-16T11:41:55.664Z,9.07
2022-08-16T11:44:43.713Z,5.72
2022-08-16T11:47:08.672Z,6.72
2022-08-16T11:56:59.754Z,7.20
2022-08-16T11:59:29.085Z,5.35
2022-08-16T12:01:59.952Z,11.55
2022-08-16T12:04:30.960Z,6.70
2022-08-16T12:06:57.185Z,9.32
2022-08-16T12:09:23.477Z,9.77
2022-08-16T12:11:52.780Z,7.97
2022-08-16T12:14:23.085Z,5.90
2022-08-16T12:21:58.342Z,8.68
2022-08-16T12:24:25.994Z,8.70
2022-08-16T12:26:53.081Z,4.97
2022-08-16T12:29:20.109Z,4.35
2022-08-16T12:32:01.414Z,8.05
2022-08-16T12:34:36.578Z,5.90
2022-08-16T12:37:08.955Z,4.57
2022-08-16T12:39:38.334Z,5.50
2022-08-16T12:42:14.496Z,3.75
2022-08-16T12:44:43.685Z,5.60
2022-08-16T12:47:28.801Z,4.82
2022-08-16T12:49:55.564Z,7.40
2022-08-16T12:52:32.888Z,4.57
2022-08-16T12:55:02.196Z,6.05
2022-08-16T12:57:36.331Z,6.85
2022-08-16T13:00:08.118Z,7.97
2022-08-16T13:02:36.636Z,5.20
2022-08-16T13:05:04.341Z,7.38
2022-08-16T13:07:37.551Z,6.10
2022-08-16T13:10:21.484Z,5.20
2022-08-16T13:13:00.533Z,6.25
2022-08-16T13:15:28.666Z,4.38
2022-08-16T13:17:56.835Z,7.53
2022-08-16T13:20:25.984Z,9.35
2022-08-16T13:23:06.829Z,11.70
2022-08-16T13:25:36.210Z,6.50
2022-08-16T13:28:04.757Z,6.65
2022-08-16T13:30:41.860Z,5.70
2022-08-16T13:33:16.967Z,4.45
2022-08-16T13:35:55.512Z,4.90
2022-08-16T13:38:24.767Z,10.38
2022-08-16T13:40:56.676Z,5.75
2022-08-16T13:43:26.278Z,6.18
2022-08-16T13:45:55.394Z,8.98
2022-08-16T13:48:25.368Z,9.45
2022-08-16T13:51:16.972Z,6.25
2022-08-16T13:53:54.416Z,7.93
2022-08-16T13:56:26.017Z,6.70
2022-08-16T13:59:04.386Z,7.82
2022-08-16T14:01:32.997Z,6.97
2022-08-16T14:04:03.509Z,12.07
2022-08-16T14:06:31.157Z,6.22
2022-08-16T14:08:59.154Z,8.20
2022-08-16T14:11:33.614Z,6.40
2022-08-16T14:14:00.460Z,8.02
2022-08-16T14:16:33.901Z,5.93
2022-08-16T14:19:02.217Z,4.30
2022-08-16T14:21:34.937Z,8.73
2022-08-16T14:24:03.252Z,5.97
2022-08-16T14:26:41.291Z,9.70
2022-08-16T14:29:10.737Z,6.32
2022-08-16T14:31:39.762Z,6.35
2022-08-16T14:34:07.568Z,7.30
2022-08-16T14:36:40.871Z,6.30
2022-08-16T14:39:08.925Z,5.03
2022-08-16T14:41:35.573Z,7.65
2022-08-16T14:44:06.783Z,6.03
2022-08-16T14:46:33.710Z,8.23
2022-08-16T14:49:01.735Z,7.07
2022-08-16T14:51:28.964Z,7.22
2022-08-16T14:53:56.804Z,6.30
2022-08-16T14:56:39.133Z,5.32
2022-08-16T14:59:10.846Z,6.55
2022-08-16T15:01:59.838Z,5.82
2022-08-16T15:04:39.319Z,3.88
2022-08-16T15:07:11.303Z,5.97
2022-08-16T15:09:59.998Z,7.10
2022-08-16T15:12:33.881Z,10.27
2022-08-16T15:15:04.367Z,5.75
2022-08-16T15:17:39.549Z,6.43
2022-08-16T15:20:10.843Z,13.38
2022-08-16T15:22:44.874Z,5.57
2022-08-16T15:25:19.942Z,10.57
2022-08-16T15:27:49.451Z,7.53
2022-08-16T15:30:58.268Z,4.18
2022-08-16T15:33:16.745Z,9.80
2022-08-16T15:35:44.750Z,6.50
2022-08-16T15:38:57.435Z,5.00
2022-08-16T15:40:59.458Z,5.50
2022-08-16T15:43:39.549Z,3.28
2022-08-16T15:46:34.925Z,6.82
2022-08-16T15:49:12.655Z,5.35
2022-08-16T15:51:41.188Z,7.88
2022-08-16T15:54:29.760Z,9.40
2022-08-16T15:57:11.474Z,6.10
2022-08-16T15:59:49.326Z,6.93
2022-08-16T16:02:29.683Z,7.53
2022-08-16T16:05:02.348Z,6.82
2022-08-16T16:07:32.124Z,6.10
2022-08-16T16:10:01.966Z,5.72
2022-08-16T16:12:51.285Z,10.57
2022-08-16T16:15:18.791Z,7.45
2022-08-16T16:17:50.696Z,7.15
2022-08-16T16:20:18.449Z,7.63
2022-08-16T16:22:46.707Z,4.50
2022-08-16T16:25:15.828Z,6.90
2022-08-16T16:27:43.854Z,6.32
2022-08-16T16:30:37.594Z,5.32
2022-08-16T16:33:01.082Z,4.30
2022-08-16T16:35:30.670Z,6.85
2022-08-16T16:37:59.746Z,8.88
2022-08-16T16:40:32.244Z,10.35
2022-08-16T16:43:00.010Z,8.95
2022-08-16T16:45:34.658Z,6.25
2022-08-16T16:48:12.093Z,7.07
2022-08-16T16:50:44.414Z,9.30
2022-08-16T16:53:17.363Z,6.15
2022-08-16T16:55:52.231Z,6.47
2022-08-16T16:58:40.482Z,6.15
2022-08-16T17:01:10.334Z,5.97
2022-08-16T17:03:38.507Z,4.53
2022-08-16T17:06:09.387Z,5.13
2022-08-16T17:08:40.955Z,8.02
2022-08-16T17:11:09.619Z,9.60
2022-08-16T17:13:36.640Z,6.72
2022-08-16T17:16:05.633Z,6.05
2022-08-16T17:19:14.756Z,6.47
2022-08-16T17:21:23.637Z,6.97
2022-08-16T17:23:58.511Z,4.18
2022-08-16T17:26:29.676Z,5.30
2022-08-16T17:29:34.625Z,7.03
2022-08-16T17:32:33.844Z,5.82
2022-08-16T17:35:10.893Z,4.38
2022-08-16T17:38:11.753Z,6.97
2022-08-16T17:47:55.238Z,10.55
2022-08-16T17:50:27.791Z,12.40
2022-08-16T17:52:58.330Z,18.70
2022-08-16T17:55:32.320Z,14.10
2022-08-16T17:57:59.465Z,15.65
2022-08-16T18:00:27.582Z,15.68
2022-08-16T18:02:58.540Z,7.72
2022-08-16T18:05:27.949Z,8.73
2022-08-16T18:07:55.329Z,7.25
2022-08-16T18:10:33.582Z,6.20
2022-08-16T18:13:03.736Z,7.55
2022-08-16T18:15:30.944Z,6.30
2022-08-16T18:17:57.600Z,5.35
2022-08-16T18:20:43.398Z,4.88
2022-08-16T18:23:19.311Z,9.68
2022-08-16T18:25:57.283Z,7.60
2022-08-16T18:28:25.345Z,5.95
2022-08-16T18:30:54.284Z,5.40
2022-08-16T18:33:26.407Z,6.70
2022-08-16T18:35:57.704Z,6.47
2022-08-16T18:38:25.480Z,8.55
2022-08-16T18:40:52.619Z,9.45
2022-08-16T18:43:21.950Z,11.02
2022-08-16T18:46:09.004Z,13.43
2022-08-16T18:48:36.208Z,7.38
2022-08-16T18:51:10.370Z,8.38
2022-08-16T18:53:40.199Z,6.63
2022-08-16T18:56:07.465Z,7.95
2022-08-16T18:58:34.791Z,4.38
2022-08-16T19:01:01.822Z,6.90
2022-08-16T19:03:31.680Z,7.88
2022-08-16T19:06:11.244Z,5.68
2022-08-16T19:08:42.511Z,4.63
2022-08-16T19:11:19.916Z,6.68
2022-08-16T19:13:47.114Z,5.20
2022-08-16T19:16:15.105Z,7.72
2022-08-16T19:18:42.314Z,6.63
2022-08-16T19:21:11.423Z,5.38
2022-08-16T19:23:42.628Z,4.82
2022-08-16T19:26:24.392Z,7.10
2022-08-16T19:28:58.725Z,6.53
2022-08-16T19:31:30.251Z,11.63
2022-08-16T19:33:57.723Z,8.18
2022-08-16T19:36:31.662Z,15.30
2022-08-16T19:39:04.554Z,5.35
2022-08-16T19:41:34.052Z,10.27
2022-08-16T19:44:00.742Z,9.60
2022-08-16T19:46:27.410Z,13.43
2022-08-16T19:48:54.222Z,18.40
2022-08-16T19:51:20.849Z,18.15
2022-08-16T19:53:47.525Z,20.75
2022-08-16T19:56:14.193Z,12.32
2022-08-16T19:58:56.091Z,14.68
2022-08-16T20:01:27.716Z,20.85
2022-08-16T20:03:54.538Z,14.35
2022-08-16T20:06:34.856Z,9.85
2022-08-16T20:09:05.559Z,12.52
2022-08-16T20:11:32.614Z,12.65
2022-08-16T20:13:59.393Z,16.77
2022-08-16T20:16:26.191Z,12.70
2022-08-16T20:18:52.912Z,14.98
2022-08-16T20:21:19.619Z,8.38
2022-08-16T20:23:46.302Z,13.25
2022-08-16T20:26:13.341Z,6.18
2022-08-16T20:28:53.618Z,7.15
2022-08-16T20:31:25.843Z,7.97
2022-08-16T20:33:53.381Z,10.60
2022-08-16T20:36:20.322Z,6.32
2022-08-16T20:38:47.622Z,9.80
2022-08-16T20:41:15.538Z,7.72
2022-08-16T20:43:42.286Z,14.85
2022-08-16T20:46:09.026Z,7.95
2022-08-16T20:48:35.681Z,7.95
2022-08-16T20:51:02.463Z,6.85
2022-08-16T20:53:29.069Z,10.05
2022-08-16T20:55:56.321Z,11.20
2022-08-16T20:58:22.963Z,9.65
2022-08-16T21:00:50.167Z,8.57
2022-08-16T21:03:16.951Z,6.30
2022-08-16T21:05:46.508Z,6.25
2022-08-16T21:08:51.117Z,8.40
2022-08-16T21:11:02.951Z,9.70
2022-08-16T21:13:31.034Z,10.68
2022-08-16T21:15:58.692Z,15.68
2022-08-16T21:18:25.530Z,11.75
2022-08-16T21:20:52.771Z,8.30
2022-08-16T21:23:19.967Z,10.32
2022-08-16T21:25:58.875Z,7.32
2022-08-16T21:28:40.690Z,13.23
2022-08-16T21:31:11.254Z,13.73
2022-08-16T21:33:38.034Z,12.15
2022-08-16T21:36:05.644Z,9.30
2022-08-16T21:38:32.488Z,10.27
2022-08-16T21:41:00.462Z,11.70
2022-08-16T21:43:31.764Z,11.05
2022-08-16T21:45:59.686Z,7.32
2022-08-16T21:48:33.957Z,10.55
2022-08-16T21:58:46.797Z,10.93
2022-08-16T22:01:18.831Z,8.27
2022-08-16T22:03:44.779Z,12.57
2022-08-16T22:06:12.866Z,8.93
2022-08-16T22:08:50.427Z,9.70
2022-08-16T22:49:43.328Z,6.95
2022-08-16T22:52:09.844Z,8.48
2022-08-16T23:11:46.715Z,8.13
2022-08-16T23:15:11.443Z,8.10
2022-08-16T23:24:56.306Z,8.32
2022-08-16T23:27:23.649Z,7.97
2022-08-16T23:29:50.383Z,13.43
2022-08-16T23:32:17.013Z,10.95
2022-08-16T23:34:43.654Z,8.73
2022-08-16T23:37:10.349Z,10.80
2022-08-16T23:39:37.054Z,8.18
2022-08-16T23:42:15.281Z,8.93
2022-08-16T23:45:01.890Z,9.90
2022-08-16T23:47:28.498Z,11.77
2022-08-16T23:50:00.972Z,10.48
2022-08-16T23:52:42.205Z,8.52
2022-08-16T23:55:17.364Z,11.00
2022-08-16T23:57:44.725Z,10.63
